createdAt,value
2022-08-01T00:00:11.531Z,49.90
2022-08-01T00:02:42.394Z,50.20
2022-08-01T00:05:11.715Z,50.30
2022-08-01T00:07:40.548Z,50.50
2022-08-01T00:10:14.135Z,50.50
2022-08-01T00:12:43.520Z,50.90
2022-08-01T00:15:14.282Z,50.90
2022-08-01T00:17:45.179Z,51.20
2022-08-01T00:20:17.463Z,51.20
2022-08-01T00:22:45.612Z,51.50
2022-08-01T00:25:15.105Z,51.40
2022-08-01T00:27:43.210Z,52.00
2022-08-01T00:30:14.688Z,52.20
2022-08-01T00:32:43.567Z,52.50
2022-08-01T00:35:11.821Z,52.80
2022-08-01T00:37:40.098Z,52.80
2022-08-01T00:40:09.809Z,52.90
2022-08-01T00:42:43.501Z,53.00
2022-08-01T00:45:13.217Z,53.30
2022-08-01T00:47:41.677Z,53.20
2022-08-01T00:50:18.480Z,53.30
2022-08-01T00:52:51.293Z,54.10
2022-08-01T00:55:21.314Z,53.70
2022-08-01T00:58:03.038Z,53.90
2022-08-01T01:00:52.442Z,54.00
2022-08-01T01:03:29.380Z,53.90
2022-08-01T01:06:29.067Z,54.00
2022-08-01T01:09:09.532Z,54.70
2022-08-01T01:11:46.488Z,54.70
2022-08-01T01:14:25.807Z,54.90
2022-08-01T01:16:55.917Z,55.00
2022-08-01T01:19:28.399Z,54.80
2022-08-01T01:22:21.606Z,55.10
2022-08-01T01:25:14.535Z,55.30
2022-08-01T01:27:51.923Z,55.40
2022-08-01T01:30:22.521Z,55.40
2022-08-01T01:32:55.438Z,55.30
2022-08-01T01:35:26.820Z,55.50
2022-08-01T01:38:00.217Z,55.60
2022-08-01T01:40:28.947Z,55.80
2022-08-01T01:42:59.109Z,55.70
2022-08-01T01:45:38.203Z,56.00
2022-08-01T01:48:08.660Z,56.40
2022-08-01T01:50:37.856Z,56.30
2022-08-01T01:53:14.947Z,56.40
2022-08-01T01:55:49.337Z,56.60
2022-08-01T01:58:20.633Z,56.70
2022-08-01T02:00:51.801Z,56.80
2022-08-01T02:03:21.585Z,57.20
2022-08-01T02:06:05.680Z,57.30
2022-08-01T02:08:36.026Z,57.70
2022-08-01T02:11:20.293Z,57.40
2022-08-01T02:14:02.088Z,57.60
2022-08-01T02:16:36.602Z,57.70
2022-08-01T02:19:05.605Z,58.10
2022-08-01T02:21:40.926Z,57.70
2022-08-01T02:24:15.514Z,58.20
2022-08-01T02:26:48.618Z,58.20
2022-08-01T02:29:23.519Z,58.10
2022-08-01T02:31:57.123Z,58.40
2022-08-01T02:34:27.735Z,58.50
2022-08-01T02:36:58.265Z,58.30
2022-08-01T02:39:30.647Z,58.30
2022-08-01T02:42:05.062Z,58.50
2022-08-01T02:44:37.358Z,58.40
2022-08-01T02:47:07.504Z,58.30
2022-08-01T02:49:38.327Z,58.80
2022-08-01T02:52:10.511Z,58.30
2022-08-01T02:54:39.432Z,58.50
2022-08-01T02:57:13.723Z,58.30
2022-08-01T02:59:43.491Z,58.60
2022-08-01T03:02:16.135Z,58.50
2022-08-01T03:04:46.037Z,58.80
2022-08-01T03:07:15.501Z,58.80
2022-08-01T03:09:47.291Z,58.80
2022-08-01T03:12:18.105Z,58.90
2022-08-01T03:14:47.934Z,59.00
2022-08-01T03:17:37.808Z,59.00
2022-08-01T03:20:07.350Z,59.10
2022-08-01T03:22:46.641Z,59.00
2022-08-01T03:25:17.460Z,59.00
2022-08-01T03:27:50.006Z,59.10
2022-08-01T03:30:18.671Z,59.00
2022-08-01T03:32:48.280Z,58.90
2022-08-01T03:35:16.830Z,59.10
2022-08-01T03:38:13.426Z,58.90
2022-08-01T03:40:40.736Z,59.20
2022-08-01T03:43:17.226Z,59.10
2022-08-01T03:45:50.665Z,59.10
2022-08-01T03:48:21.514Z,59.20
2022-08-01T03:50:52.838Z,59.20
2022-08-01T03:53:24.390Z,59.10
2022-08-01T03:55:53.543Z,59.20
2022-08-01T03:58:22.827Z,59.00
2022-08-01T04:00:51.294Z,59.00
2022-08-01T04:03:21.402Z,59.20
2022-08-01T04:05:49.684Z,59.40
2022-08-01T04:08:17.855Z,59.20
2022-08-01T04:10:46.072Z,59.20
2022-08-01T04:13:14.817Z,59.30
2022-08-01T04:15:43.027Z,59.30
2022-08-01T04:18:11.150Z,59.40
2022-08-01T04:20:40.689Z,59.50
2022-08-01T04:23:10.164Z,59.60
2022-08-01T04:25:40.721Z,59.50
2022-08-01T04:28:15.022Z,59.50
2022-08-01T04:30:43.651Z,59.50
2022-08-01T04:33:13.706Z,59.40
2022-08-01T04:36:02.130Z,59.50
2022-08-01T04:38:37.662Z,59.60
2022-08-01T04:41:09.402Z,59.40
2022-08-01T04:43:38.676Z,59.30
2022-08-01T04:46:08.211Z,59.30
2022-08-01T04:48:39.852Z,59.40
2022-08-01T04:51:17.225Z,59.50
2022-08-01T04:53:46.842Z,59.70
2022-08-01T04:56:15.482Z,59.30
2022-08-01T04:58:44.506Z,59.20
2022-08-01T05:01:13.202Z,59.20
2022-08-01T05:03:41.441Z,59.20
2022-08-01T05:06:09.608Z,59.20
2022-08-01T05:08:39.054Z,59.20
2022-08-01T05:11:07.185Z,59.30
2022-08-01T05:13:35.442Z,59.20
2022-08-01T05:16:04.662Z,59.80
2022-08-01T05:18:32.875Z,59.20
2022-08-01T05:21:01.097Z,59.20
2022-08-01T05:23:43.056Z,59.20
2022-08-01T05:26:15.046Z,59.10
2022-08-01T05:28:44.082Z,59.10
2022-08-01T05:31:12.212Z,59.00
2022-08-01T05:33:40.333Z,59.10
2022-08-01T05:36:08.631Z,59.10
2022-08-01T05:38:36.814Z,59.20
2022-08-01T05:41:05.023Z,59.10
2022-08-01T05:43:34.607Z,59.10
2022-08-01T05:46:02.859Z,59.20
2022-08-01T05:48:31.360Z,59.00
2022-08-01T05:51:00.566Z,59.00
2022-08-01T05:53:29.073Z,59.00
2022-08-01T05:55:57.486Z,58.90
2022-08-01T05:58:25.666Z,58.80
2022-08-01T06:00:55.248Z,58.80
2022-08-01T06:03:23.372Z,58.90
2022-08-01T06:05:51.520Z,58.90
2022-08-01T06:08:19.733Z,58.80
2022-08-01T06:10:47.900Z,58.80
2022-08-01T06:13:16.150Z,58.80
2022-08-01T06:15:44.261Z,58.90
2022-08-01T06:18:13.800Z,59.00
2022-08-01T06:20:42.126Z,59.00
2022-08-01T06:23:22.481Z,58.80
2022-08-01T06:25:59.103Z,58.80
2022-08-01T06:28:27.266Z,58.80
2022-08-01T06:30:55.438Z,59.00
2022-08-01T06:33:24.910Z,59.10
2022-08-01T06:35:53.115Z,59.10
2022-08-01T06:38:21.290Z,59.10
2022-08-01T06:40:49.866Z,59.30
2022-08-01T06:43:19.716Z,59.30
2022-08-01T06:45:47.858Z,59.20
2022-08-01T06:48:16.281Z,59.30
2022-08-01T06:50:46.710Z,59.30
2022-08-01T06:53:14.828Z,59.40
2022-08-01T06:55:42.971Z,59.30
2022-08-01T06:58:11.145Z,59.10
2022-08-01T07:00:39.321Z,59.10
2022-08-01T07:03:07.475Z,59.00
2022-08-01T07:05:35.607Z,58.90
2022-08-01T07:08:06.008Z,58.80
2022-08-01T07:10:34.089Z,58.70
2022-08-01T07:13:02.262Z,58.60
2022-08-01T07:15:30.390Z,58.60
2022-08-01T07:18:02.421Z,58.50
2022-08-01T07:20:33.851Z,58.40
2022-08-01T07:23:07.532Z,58.40
2022-08-01T07:25:36.287Z,58.50
2022-08-01T07:28:04.518Z,58.40
2022-08-01T07:30:32.966Z,58.50
2022-08-01T07:33:01.414Z,58.50
2022-08-01T07:35:29.544Z,58.50
2022-08-01T07:37:57.736Z,58.20
2022-08-01T07:40:27.451Z,58.10
2022-08-01T07:42:55.576Z,58.10
2022-08-01T07:45:24.032Z,58.10
2022-08-01T07:47:55.002Z,58.10
2022-08-01T07:50:23.146Z,57.90
2022-08-01T07:52:51.256Z,57.90
2022-08-01T07:55:19.386Z,57.80
2022-08-01T07:57:51.177Z,57.70
2022-08-01T08:00:19.722Z,57.70
2022-08-01T08:02:47.828Z,57.60
2022-08-01T08:05:15.975Z,57.60
2022-08-01T08:08:04.147Z,57.50
2022-08-01T08:10:32.329Z,57.30
2022-08-01T08:13:03.525Z,57.20
2022-08-01T08:15:31.879Z,57.10
2022-08-01T08:18:01.769Z,56.90
2022-08-01T08:20:30.287Z,56.70
2022-08-01T08:22:59.738Z,56.50
2022-08-01T08:25:28.463Z,56.30
2022-08-01T08:27:56.608Z,56.00
2022-08-01T08:30:26.107Z,55.60
2022-08-01T08:32:55.124Z,55.40
2022-08-01T08:35:40.462Z,55.20
2022-08-01T08:38:11.810Z,55.00
2022-08-01T08:40:40.315Z,54.80
2022-08-01T08:43:08.739Z,54.50
2022-08-01T08:45:56.617Z,54.40
2022-08-01T08:48:27.784Z,54.10
2022-08-01T08:50:57.436Z,53.80
2022-08-01T08:53:27.278Z,53.60
2022-08-01T08:56:04.707Z,53.10
2022-08-01T08:58:35.195Z,52.40
2022-08-01T09:01:06.929Z,52.10
2022-08-01T09:03:35.353Z,51.70
2022-08-01T09:06:03.887Z,51.40
2022-08-01T09:08:32.051Z,51.10
2022-08-01T09:11:00.184Z,50.60
2022-08-01T09:13:28.322Z,50.40
2022-08-01T09:15:59.734Z,50.20
2022-08-01T09:18:31.718Z,49.80
2022-08-01T09:21:17.948Z,48.90
2022-08-01T09:23:53.925Z,48.30
2022-08-01T09:26:31.874Z,48.60
2022-08-01T09:29:01.328Z,48.10
2022-08-01T09:31:38.047Z,48.00
2022-08-01T09:34:10.229Z,47.40
2022-08-01T09:36:56.894Z,47.10
2022-08-01T09:39:27.165Z,46.30
2022-08-01T09:41:58.951Z,46.40
2022-08-01T09:44:44.077Z,45.80
2022-08-01T09:47:15.357Z,45.40
2022-08-01T09:49:50.632Z,45.80
2022-08-01T09:52:26.070Z,45.00
2022-08-01T09:54:56.799Z,44.90
2022-08-01T09:57:25.151Z,44.90
2022-08-01T10:00:00.498Z,45.10
2022-08-01T10:02:32.431Z,45.00
2022-08-01T10:05:03.615Z,45.20
2022-08-01T10:07:43.532Z,45.60
2022-08-01T10:10:14.471Z,45.80
2022-08-01T10:12:44.263Z,45.70
2022-08-01T10:15:14.287Z,45.50
2022-08-01T10:17:50.472Z,45.50
2022-08-01T10:20:29.782Z,45.00
2022-08-01T10:23:06.202Z,45.10
2022-08-01T10:25:42.759Z,44.50
2022-08-01T10:28:18.254Z,44.00
2022-08-01T10:30:50.039Z,43.90
2022-08-01T10:33:51.607Z,43.90
2022-08-01T10:36:10.601Z,43.50
2022-08-01T10:38:39.315Z,43.20
2022-08-01T10:41:08.759Z,43.30
2022-08-01T10:43:37.499Z,43.40
2022-08-01T10:46:06.847Z,43.20
2022-08-01T10:48:43.654Z,42.70
2022-08-01T10:51:18.389Z,42.10
2022-08-01T10:53:54.429Z,41.90
2022-08-01T10:56:27.012Z,41.10
2022-08-01T10:59:06.026Z,41.10
2022-08-01T11:01:44.846Z,43.50
2022-08-01T11:04:17.803Z,41.20
2022-08-01T11:07:05.219Z,40.60
2022-08-01T11:09:41.696Z,42.90
2022-08-01T11:12:13.134Z,39.80
2022-08-01T11:15:29.674Z,39.80
2022-08-01T11:18:01.245Z,39.60
2022-08-01T11:20:32.460Z,38.70
2022-08-01T11:23:36.208Z,38.00
2022-08-01T11:26:29.084Z,38.40
2022-08-01T11:29:21.006Z,37.40
2022-08-01T11:31:49.677Z,37.20
2022-08-01T11:34:18.067Z,36.70
2022-08-01T11:37:01.713Z,36.40
2022-08-01T11:39:38.236Z,36.00
2022-08-01T11:42:22.690Z,35.50
2022-08-01T11:44:53.313Z,35.60
2022-08-01T11:47:48.130Z,35.70
2022-08-01T11:50:38.002Z,35.60
2022-08-01T11:53:08.724Z,35.60
2022-08-01T11:55:51.214Z,35.60
2022-08-01T11:58:27.719Z,35.20
2022-08-01T12:01:00.409Z,35.30
2022-08-01T12:03:33.769Z,35.60
2022-08-01T12:06:02.344Z,35.80
2022-08-01T12:08:33.829Z,35.80
2022-08-01T12:11:06.841Z,35.90
2022-08-01T12:13:43.053Z,35.80
2022-08-01T12:16:12.559Z,35.70
2022-08-01T12:18:42.195Z,36.10
2022-08-01T12:21:10.421Z,35.90
2022-08-01T12:23:38.851Z,36.10
2022-08-01T12:26:08.375Z,36.30
2022-08-01T12:28:56.486Z,35.80
2022-08-01T12:31:33.667Z,35.80
2022-08-01T12:34:29.020Z,35.30
2022-08-01T12:36:58.336Z,35.60
2022-08-01T12:39:33.576Z,35.20
2022-08-01T12:42:03.501Z,34.70
2022-08-01T12:44:33.046Z,34.60
2022-08-01T12:47:04.025Z,34.40
2022-08-01T12:49:34.597Z,34.20
2022-08-01T12:52:03.740Z,34.00
2022-08-01T12:54:32.128Z,34.00
2022-08-01T12:57:00.300Z,33.90
2022-08-01T12:59:31.269Z,33.60
2022-08-01T13:02:10.073Z,33.40
2022-08-01T13:04:52.341Z,33.60
2022-08-01T13:07:20.585Z,33.20
2022-08-01T13:09:52.098Z,33.00
2022-08-01T13:12:20.372Z,32.60
2022-08-01T13:14:50.011Z,32.80
2022-08-01T13:17:32.506Z,32.80
2022-08-01T13:20:00.730Z,33.00
2022-08-01T13:22:34.881Z,33.30
2022-08-01T13:25:14.375Z,33.10
2022-08-01T13:27:53.860Z,33.30
2022-08-01T13:30:24.675Z,33.40
2022-08-01T13:33:00.591Z,32.80
2022-08-01T13:35:29.004Z,32.50
2022-08-01T13:37:57.635Z,32.90
2022-08-01T13:40:27.301Z,32.90
2022-08-01T13:42:57.493Z,32.80
2022-08-01T13:45:27.179Z,32.80
2022-08-01T13:48:03.908Z,33.00
2022-08-01T13:50:41.373Z,33.40
2022-08-01T13:53:10.378Z,33.30
2022-08-01T13:55:39.052Z,33.50
2022-08-01T13:58:10.004Z,33.30
2022-08-01T14:00:39.624Z,32.80
2022-08-01T14:03:07.894Z,32.50
2022-08-01T14:05:36.009Z,32.50
2022-08-01T14:08:04.354Z,32.50
2022-08-01T14:10:32.822Z,32.20
2022-08-01T14:13:01.959Z,32.10
2022-08-01T14:15:37.897Z,32.00
2022-08-01T14:18:10.048Z,31.80
2022-08-01T14:20:41.419Z,31.50
2022-08-01T14:23:10.143Z,31.30
2022-08-01T14:26:00.273Z,31.20
2022-08-01T14:28:29.177Z,31.10
2022-08-01T14:30:57.769Z,30.90
2022-08-01T14:33:28.257Z,30.90
2022-08-01T14:36:05.334Z,30.40
2022-08-01T14:38:34.636Z,30.50
2022-08-01T14:41:04.426Z,30.60
2022-08-01T14:43:34.188Z,30.50
2022-08-01T14:46:04.491Z,30.30
2022-08-01T14:48:34.340Z,30.20
2022-08-01T14:51:03.943Z,30.10
2022-08-01T14:53:34.358Z,30.30
2022-08-01T14:56:05.376Z,30.10
2022-08-01T14:58:33.559Z,30.10
2022-08-01T15:01:01.794Z,30.00
2022-08-01T15:03:30.207Z,30.00
2022-08-01T15:05:59.662Z,30.10
2022-08-01T15:08:27.874Z,30.10
2022-08-01T15:10:55.983Z,30.60
2022-08-01T15:13:24.100Z,31.00
2022-08-01T15:15:52.215Z,30.70
2022-08-01T15:18:20.351Z,30.80
2022-08-01T15:20:48.452Z,30.90
2022-08-01T15:23:17.969Z,30.90
2022-08-01T15:25:46.683Z,31.50
2022-08-01T15:28:15.016Z,30.90
2022-08-01T15:30:43.235Z,31.10
2022-08-01T15:33:11.374Z,31.40
2022-08-01T15:35:39.507Z,31.20
2022-08-01T15:38:07.865Z,31.20
2022-08-01T15:40:37.390Z,31.90
2022-08-01T15:43:05.582Z,31.20
2022-08-01T15:45:49.478Z,31.40
2022-08-01T15:48:17.814Z,31.40
2022-08-01T15:50:45.967Z,31.40
2022-08-01T15:53:14.100Z,31.50
2022-08-01T15:55:52.509Z,31.30
2022-08-01T15:58:21.341Z,31.70
2022-08-01T16:00:49.602Z,31.20
2022-08-01T16:03:20.391Z,31.20
2022-08-01T16:05:50.656Z,31.10
2022-08-01T16:08:18.864Z,31.30
2022-08-01T16:10:48.647Z,31.10
2022-08-01T16:13:18.319Z,31.10
2022-08-01T16:15:46.536Z,31.30
2022-08-01T16:18:15.990Z,31.20
2022-08-01T16:20:46.315Z,31.40
2022-08-01T16:23:15.287Z,31.40
2022-08-01T16:25:44.517Z,31.40
2022-08-01T16:28:14.524Z,31.70
2022-08-01T16:30:48.012Z,31.70
2022-08-01T16:33:41.442Z,31.90
2022-08-01T16:36:12.620Z,31.90
2022-08-01T16:38:46.287Z,32.00
2022-08-01T16:41:19.092Z,32.00
2022-08-01T16:43:53.380Z,32.10
2022-08-01T16:46:27.087Z,32.30
2022-08-01T16:48:55.490Z,32.60
2022-08-01T16:51:23.747Z,32.50
2022-08-01T16:53:51.898Z,32.60
2022-08-01T16:56:24.806Z,32.70
2022-08-01T16:58:54.627Z,32.60
2022-08-01T17:01:58.056Z,32.70
2022-08-01T17:04:22.156Z,32.90
2022-08-01T17:06:52.314Z,33.10
2022-08-01T17:09:20.783Z,33.20
2022-08-01T17:11:49.385Z,33.30
2022-08-01T17:14:18.912Z,33.30
2022-08-01T17:16:47.899Z,33.20
2022-08-01T17:19:16.070Z,33.10
2022-08-01T17:21:44.253Z,33.00
2022-08-01T17:24:16.787Z,32.90
2022-08-01T17:26:45.065Z,32.90
2022-08-01T17:29:13.308Z,33.00
2022-08-01T17:31:42.786Z,32.90
2022-08-01T17:34:10.901Z,33.00
2022-08-01T17:36:39.015Z,33.20
2022-08-01T17:39:11.351Z,33.40
2022-08-01T17:41:40.108Z,33.40
2022-08-01T17:44:09.089Z,33.50
2022-08-01T17:46:37.615Z,33.70
2022-08-01T17:49:07.298Z,33.80
2022-08-01T17:51:35.480Z,33.90
2022-08-01T17:54:04.564Z,34.10
2022-08-01T17:56:37.634Z,34.30
2022-08-01T17:59:06.905Z,34.40
2022-08-01T18:01:35.864Z,34.50
2022-08-01T18:04:04.199Z,34.70
2022-08-01T18:06:35.905Z,34.90
2022-08-01T18:09:04.875Z,35.70
2022-08-01T18:11:37.845Z,36.50
2022-08-01T18:14:06.506Z,37.10
2022-08-01T18:16:34.678Z,37.70
2022-08-01T18:19:02.944Z,38.30
2022-08-01T18:21:32.140Z,38.90
2022-08-01T18:24:01.701Z,39.20
2022-08-01T18:26:30.027Z,39.90
2022-08-01T18:28:58.174Z,40.20
2022-08-01T18:31:26.451Z,40.70
2022-08-01T18:33:54.584Z,41.00
2022-08-01T18:36:32.952Z,41.50
2022-08-01T18:39:06.298Z,41.90
2022-08-01T18:41:39.088Z,42.40
2022-08-01T18:44:08.911Z,42.40
2022-08-01T18:46:38.779Z,42.80
2022-08-01T18:49:07.857Z,43.10
2022-08-01T18:51:42.949Z,43.20
2022-08-01T18:54:14.108Z,43.50
2022-08-01T18:56:43.531Z,43.80
2022-08-01T18:59:14.659Z,43.90
2022-08-01T19:01:43.151Z,44.10
2022-08-01T19:04:16.195Z,44.20
2022-08-01T19:06:47.494Z,44.40
2022-08-01T19:09:20.309Z,44.50
2022-08-01T19:11:49.040Z,44.80
2022-08-01T19:14:17.662Z,44.80
2022-08-01T19:16:45.905Z,45.00
2022-08-01T19:19:14.230Z,45.20
2022-08-01T19:21:50.918Z,45.40
2022-08-01T19:24:23.329Z,45.50
2022-08-01T19:26:53.876Z,45.70
2022-08-01T19:29:24.254Z,45.80
2022-08-01T19:32:05.512Z,46.00
2022-08-01T19:34:36.532Z,46.00
2022-08-01T19:37:05.299Z,46.50
2022-08-01T19:39:35.196Z,46.30
2022-08-01T19:42:04.170Z,46.60
2022-08-01T19:44:32.978Z,46.60
2022-08-01T19:47:02.935Z,46.90
2022-08-01T19:49:31.227Z,47.10
2022-08-01T19:52:02.442Z,47.20
2022-08-01T19:54:37.671Z,47.50
2022-08-01T19:57:09.646Z,48.00
2022-08-01T19:59:38.229Z,47.90
2022-08-01T20:02:07.024Z,47.80
2022-08-01T20:04:36.300Z,48.10
2022-08-01T20:07:05.020Z,48.30
2022-08-01T20:09:34.509Z,48.50
2022-08-01T20:12:05.136Z,48.60
2022-08-01T20:14:33.641Z,49.00
2022-08-01T20:17:02.142Z,48.70
2022-08-01T20:19:30.617Z,48.90
2022-08-01T20:22:02.413Z,48.90
2022-08-01T20:24:40.882Z,49.20
2022-08-01T20:27:12.637Z,49.60
2022-08-01T20:29:41.922Z,49.50
2022-08-01T20:32:10.765Z,49.40
2022-08-01T20:34:40.362Z,49.60
2022-08-01T20:37:13.075Z,49.80
2022-08-01T20:39:45.126Z,49.90
2022-08-01T20:42:15.566Z,49.90
2022-08-01T20:44:45.367Z,50.20
2022-08-01T20:47:15.334Z,50.20
2022-08-01T20:49:44.714Z,50.20
2022-08-01T20:52:13.115Z,50.40
2022-08-01T20:54:42.710Z,50.30
2022-08-01T20:57:17.216Z,50.60
2022-08-01T20:59:56.055Z,50.80
2022-08-01T21:02:41.424Z,51.00
2022-08-01T21:05:11.699Z,51.40
2022-08-01T21:07:44.122Z,51.00
2022-08-01T21:10:15.295Z,51.20
2022-08-01T21:12:49.472Z,51.40
2022-08-01T21:15:26.872Z,51.60
2022-08-01T21:18:02.421Z,51.90
2022-08-01T21:20:33.770Z,51.90
2022-08-01T21:23:11.298Z,51.70
2022-08-01T21:25:39.586Z,52.10
2022-08-01T21:28:10.105Z,51.70
2022-08-01T21:30:38.768Z,51.90
2022-08-01T21:33:12.405Z,51.80
2022-08-01T21:35:41.933Z,52.70
2022-08-01T21:38:10.600Z,52.00
2022-08-01T21:40:39.083Z,51.80
2022-08-01T21:43:09.696Z,52.00
2022-08-01T21:45:39.652Z,52.20
2022-08-01T21:48:26.828Z,52.30
2022-08-01T21:50:59.723Z,52.10
2022-08-01T21:53:32.339Z,52.20
2022-08-01T21:56:15.058Z,51.10
2022-08-01T21:58:52.871Z,51.80
2022-08-01T22:01:28.914Z,52.40
2022-08-01T22:04:03.356Z,52.70
2022-08-01T22:06:36.666Z,52.50
2022-08-01T22:09:07.008Z,53.40
2022-08-01T22:11:38.144Z,52.70
2022-08-01T22:14:31.051Z,52.80
2022-08-01T22:17:00.122Z,53.10
2022-08-01T22:19:32.435Z,52.80
2022-08-01T22:22:32.241Z,53.00
2022-08-01T22:25:03.356Z,53.00
2022-08-01T22:28:03.011Z,53.00
2022-08-01T22:30:22.007Z,53.20
2022-08-01T22:33:15.186Z,53.30
2022-08-01T22:35:39.997Z,53.30
2022-08-01T22:38:09.812Z,53.30
2022-08-01T22:40:45.338Z,53.30
2022-08-01T22:43:19.932Z,53.80
2022-08-01T22:46:19.211Z,53.90
2022-08-01T22:48:52.318Z,54.40
2022-08-01T22:51:27.854Z,54.40
2022-08-01T22:54:20.653Z,53.10
2022-08-01T22:56:51.949Z,54.30
2022-08-01T22:59:24.727Z,54.20
2022-08-01T23:02:17.558Z,54.30
2022-08-01T23:04:47.906Z,54.60
2022-08-01T23:07:25.187Z,54.40
2022-08-01T23:09:55.480Z,54.90
2022-08-01T23:12:33.249Z,54.40
2022-08-01T23:15:02.190Z,54.70
2022-08-01T23:17:32.880Z,54.30
2022-08-01T23:20:02.859Z,54.50
2022-08-01T23:22:33.330Z,54.30
2022-08-01T23:25:06.000Z,54.40
2022-08-01T23:27:51.291Z,54.40
2022-08-01T23:30:30.816Z,53.50
2022-08-01T23:33:00.617Z,54.30
2022-08-01T23:35:29.986Z,54.40
2022-08-01T23:38:02.195Z,54.50
2022-08-01T23:40:32.407Z,54.60
2022-08-01T23:43:01.701Z,54.60
2022-08-01T23:45:38.176Z,54.90
2022-08-01T23:48:19.866Z,54.80
2022-08-01T23:50:48.179Z,55.10
2022-08-01T23:53:16.374Z,55.10
2022-08-01T23:55:44.718Z,55.10
2022-08-01T23:58:12.986Z,55.30
